Time;durP1;ratioP1;P1;durP2;ratioP2;P2;SDS_P1;SDS_P2;PMS_P1;PMS_P2;Temp;Humidity;BMP_temperature;BMP_pressure;BME280_temperature;BME280_humidity;BME280_pressure;Samples;Min_cycle;Max_cycle;Signal;HPM_P1;HPM_P2
2022/07/23 00:02:06;;;;;;;8.02;7.53;;;26.30;51.30;;;;;;20387;6894;309187;-86
2022/07/23 00:04:30;;;;;;;8.23;7.73;;;26.30;52.10;;;;;;20603;6894;118052;-87
2022/07/23 00:06:55;;;;;;;8.77;8.10;;;26.20;52.10;;;;;;20376;6894;279236;-87
2022/07/23 00:09:21;;;;;;;8.27;7.40;;;26.30;52.80;;;;;;20606;6894;117641;-88
2022/07/23 00:11:47;;;;;;;8.07;7.60;;;26.10;52.30;;;;;;20393;6894;312574;-87
2022/07/23 00:14:15;;;;;;;8.10;7.50;;;26.20;51.30;;;;;;20389;6894;310148;-86
2022/07/23 00:16:43;;;;;;;8.10;7.60;;;26.40;51.20;;;;;;20589;6894;118699;-88
2022/07/23 00:19:08;;;;;;;8.25;7.65;;;26.30;50.90;;;;;;20404;6894;279891;-87
2022/07/23 00:21:34;;;;;;;8.57;8.07;;;26.30;51.20;;;;;;20389;6894;310169;-88
2022/07/23 00:23:59;;;;;;;7.33;6.90;;;26.50;51.20;;;;;;20599;6894;117578;-87
2022/07/23 00:26:25;;;;;;;8.80;8.07;;;26.30;51.30;;;;;;20397;6894;283788;-87
2022/07/23 00:28:50;;;;;;;9.17;7.87;;;26.30;51.60;;;;;;20588;6894;122399;-88
2022/07/23 00:31:16;;;;;;;7.55;7.03;;;26.00;51.70;;;;;;20610;6894;118088;-87
2022/07/23 00:33:42;;;;;;;8.23;7.57;;;25.70;52.30;;;;;;20604;6893;118383;-87
2022/07/23 00:36:08;;;;;;;8.10;7.50;;;25.30;53.20;;;;;;20607;6894;117410;-86
2022/07/23 00:38:34;;;;;;;8.07;7.47;;;25.40;53.00;;;;;;20371;6894;293464;-86
2022/07/23 00:41:00;;;;;;;7.78;7.18;;;25.50;53.10;;;;;;20403;6894;280774;-86
2022/07/23 00:43:25;;;;;;;7.70;7.20;;;25.80;52.20;;;;;;20393;6894;299399;-87
2022/07/23 00:45:51;;;;;;;7.03;6.73;;;26.00;51.20;;;;;;20604;6894;117380;-87
2022/07/23 00:48:17;;;;;;;7.32;6.82;;;25.80;51.30;;;;;;20401;6894;282359;-86
2022/07/23 00:50:42;;;;;;;6.93;6.53;;;25.80;50.60;;;;;;20587;6894;118693;-87
2022/07/23 00:53:08;;;;;;;6.60;6.20;;;25.70;50.30;;;;;;20392;6894;309089;-87
2022/07/23 00:55:34;;;;;;;6.53;6.03;;;25.70;50.20;;;;;;20389;6894;339858;-86
2022/07/23 00:58:00;;;;;;;6.37;6.00;;;25.90;49.40;;;;;;20361;6899;311345;-86
2022/07/23 01:00:25;;;;;;;5.30;5.00;;;26.10;49.50;;;;;;20583;6899;117863;-87
2022/07/23 01:02:51;;;;;;;5.83;5.53;;;25.90;49.70;;;;;;20563;6899;118731;-88
2022/07/23 01:05:17;;;;;;;6.80;5.87;;;25.60;50.80;;;;;;20582;6899;117823;-87
2022/07/23 01:07:42;;;;;;;6.57;6.28;;;25.40;51.30;;;;;;20380;6899;280175;-87
2022/07/23 01:10:30;;;;;;;6.68;6.28;;;25.50;52.50;;;;;;20372;6899;339614;-86
2022/07/23 01:12:33;;;;;;;6.50;6.20;;;25.80;52.30;;;;;;20297;6896;309850;-86
2022/07/23 01:14:59;;;;;;;6.90;6.50;;;25.80;51.70;;;;;;20424;6894;119195;-87
2022/07/23 01:17:25;;;;;;;6.90;6.33;;;25.80;51.80;;;;;;20601;6894;118476;-87
2022/07/23 01:19:51;;;;;;;6.70;6.30;;;25.50;52.50;;;;;;20600;6894;117811;-88
2022/07/23 01:22:17;;;;;;;6.80;6.40;;;25.30;53.00;;;;;;20391;6894;309115;-87
2022/07/23 01:24:43;;;;;;;6.83;6.43;;;25.40;53.40;;;;;;20582;6894;118101;-87
2022/07/23 01:27:09;;;;;;;6.27;5.97;;;25.40;53.30;;;;;;20598;6894;118557;-88
2022/07/23 01:29:35;;;;;;;6.60;6.20;;;25.10;53.80;;;;;;20599;6894;117903;-87
2022/07/23 01:32:01;;;;;;;6.77;6.37;;;25.00;53.80;;;;;;20396;6894;294749;-87
2022/07/23 01:34:26;;;;;;;6.40;6.00;;;25.30;53.20;;;;;;20598;6894;119184;-86
2022/07/23 01:36:52;;;;;;;6.57;6.20;;;25.30;52.70;;;;;;20372;6894;310052;-88
2022/07/23 01:39:17;;;;;;;5.80;5.50;;;25.50;52.10;;;;;;20592;6894;117992;-88
2022/07/23 01:41:43;;;;;;;5.87;5.47;;;25.50;52.10;;;;;;20401;6894;281157;-86
2022/07/23 01:44:08;;;;;;;5.80;5.50;;;25.70;51.50;;;;;;20604;6893;120493;-88
2022/07/23 01:46:35;;;;;;;6.73;6.00;;;25.60;51.40;;;;;;20581;6894;119495;-87
2022/07/23 01:49:00;;;;;;;6.10;5.70;;;25.40;51.70;;;;;;20605;6894;118382;-86
2022/07/23 01:51:25;;;;;;;6.30;5.90;;;25.20;52.20;;;;;;20591;6894;117812;-88
2022/07/23 01:53:51;;;;;;;6.07;5.70;;;25.00;52.40;;;;;;20611;6894;118910;-87
2022/07/23 01:56:18;;;;;;;6.60;6.20;;;24.90;52.80;;;;;;20393;6894;307152;-87
2022/07/23 01:58:42;;;;;;;6.30;5.90;;;25.10;53.00;;;;;;20578;6894;118492;-88
2022/07/23 02:01:07;;;;;;;7.07;6.67;;;25.00;52.80;;;;;;20395;6894;309045;-87
2022/07/23 02:03:33;;;;;;;6.57;6.27;;;25.20;52.80;;;;;;20605;6894;118311;-87
2022/07/23 02:05:59;;;;;;;6.40;5.87;;;25.00;52.60;;;;;;20605;6894;117730;-87
2022/07/23 02:08:24;;;;;;;6.30;6.00;;;24.80;53.10;;;;;;20616;6894;119582;-86
2022/07/23 02:10:51;;;;;;;7.10;6.70;;;24.70;53.80;;;;;;20381;6894;280847;-87
2022/07/23 02:13:16;;;;;;;6.53;6.15;;;24.70;53.70;;;;;;20395;6894;339342;-87
2022/07/23 02:15:42;;;;;;;6.37;6.07;;;25.10;53.40;;;;;;20394;6894;339219;-86
2022/07/23 02:18:08;;;;;;;6.17;5.53;;;25.40;53.00;;;;;;20615;6894;118595;-88
2022/07/23 02:20:33;;;;;;;5.80;5.30;;;25.20;52.70;;;;;;20594;6894;118049;-87
2022/07/23 02:22:59;;;;;;;5.35;5.05;;;24.60;52.10;;;;;;20604;6894;118180;-87
2022/07/23 02:25:25;;;;;;;5.00;4.70;;;24.60;52.10;;;;;;20392;6894;309599;-87
2022/07/23 02:27:50;;;;;;;4.50;4.30;;;24.70;49.90;;;;;;20374;6894;309209;-87
2022/07/23 02:30:16;;;;;;;4.13;3.93;;;25.00;48.50;;;;;;20601;6894;117350;-87
2022/07/23 02:32:41;;;;;;;4.90;4.60;;;24.90;48.90;;;;;;20378;6894;280435;-87
2022/07/23 02:35:07;;;;;;;4.63;4.33;;;25.00;48.70;;;;;;20388;6894;309220;-87
2022/07/23 02:37:32;;;;;;;4.75;4.55;;;25.20;48.50;;;;;;20391;6894;341320;-87
2022/07/23 02:39:58;;;;;;;4.93;4.47;;;25.50;48.10;;;;;;20588;6894;118615;-87
2022/07/23 02:42:24;;;;;;;4.60;4.40;;;25.30;48.10;;;;;;20390;6894;311455;-88
2022/07/23 02:44:50;;;;;;;4.77;4.47;;;25.20;48.40;;;;;;20586;6894;119664;-87
2022/07/23 02:47:15;;;;;;;4.80;4.50;;;25.20;48.40;;;;;;20591;6894;117577;-87
2022/07/23 02:49:42;;;;;;;4.80;4.30;;;24.80;49.60;;;;;;20606;6894;117890;-87
2022/07/23 02:52:10;;;;;;;5.15;4.82;;;24.80;49.60;;;;;;20393;6894;280090;-87
2022/07/23 02:54:33;;;;;;;4.90;4.70;;;25.00;48.70;;;;;;20358;6894;309556;-88
2022/07/23 02:56:59;;;;;;;5.10;4.80;;;25.30;49.00;;;;;;20530;6907;120234;-87
2022/07/23 02:59:25;;;;;;;4.87;4.60;;;25.30;49.00;;;;;;20588;6894;117462;-87
2022/07/23 03:01:50;;;;;;;5.53;5.20;;;25.00;49.40;;;;;;20356;6894;316568;-87
2022/07/23 03:04:16;;;;;;;5.17;4.90;;;25.20;49.40;;;;;;20396;6894;309171;-86
2022/07/23 03:06:41;;;;;;;5.60;5.10;;;25.50;49.00;;;;;;20369;6894;279530;-88
2022/07/23 03:09:07;;;;;;;6.93;6.43;;;25.80;48.30;;;;;;20404;6894;309620;-87
2022/07/23 03:11:34;;;;;;;6.70;6.30;;;26.00;48.50;;;;;;20405;6894;318024;-87
2022/07/23 03:14:00;;;;;;;6.30;5.80;;;26.10;47.60;;;;;;20394;6894;320384;-87
2022/07/23 03:16:26;;;;;;;6.37;5.97;;;26.10;46.90;;;;;;20395;6894;311562;-87
2022/07/23 03:18:51;;;;;;;6.68;6.00;;;26.20;46.80;;;;;;20587;6894;118716;-87
2022/07/23 03:21:17;;;;;;;6.60;6.00;;;25.90;47.60;;;;;;20395;6894;279579;-87
2022/07/23 03:23:42;;;;;;;5.57;5.30;;;25.80;48.70;;;;;;20389;6894;311580;-87
2022/07/23 03:26:08;;;;;;;5.47;5.17;;;26.00;47.50;;;;;;20611;6894;117477;-88
2022/07/23 03:28:33;;;;;;;5.20;4.97;;;25.80;48.00;;;;;;20372;6894;310499;-87
2022/07/23 03:30:59;;;;;;;5.55;5.25;;;25.80;48.30;;;;;;20392;6894;280881;-87
2022/07/23 03:33:24;;;;;;;5.70;5.30;;;26.00;48.00;;;;;;20604;6894;121653;-87
2022/07/23 03:35:50;;;;;;;5.40;5.10;;;25.80;48.40;;;;;;20393;6894;282090;-86
2022/07/23 03:38:16;;;;;;;5.37;5.00;;;25.80;48.40;;;;;;20600;6894;119745;-87
2022/07/23 03:40:41;;;;;;;5.97;5.67;;;25.50;48.60;;;;;;20381;6894;279945;-87
2022/07/23 03:43:07;;;;;;;6.20;5.80;;;25.50;48.80;;;;;;20603;6894;120648;-88
2022/07/23 03:45:34;;;;;;;7.77;7.37;;;25.30;49.10;;;;;;20389;6894;312046;-87
2022/07/23 03:48:00;;;;;;;6.17;5.87;;;25.00;49.50;;;;;;20604;6894;120006;-87
2022/07/23 03:50:25;;;;;;;6.07;5.73;;;25.00;49.50;;;;;;20595;6894;117335;-87
2022/07/23 03:52:51;;;;;;;5.63;5.23;;;24.70;49.80;;;;;;20389;6894;309880;-87
2022/07/23 03:55:17;;;;;;;5.30;5.00;;;24.80;49.80;;;;;;20593;6894;118379;-87
2022/07/23 03:57:42;;;;;;;5.70;5.33;;;24.70;50.10;;;;;;20576;6899;118576;-88
2022/07/23 04:00:09;;;;;;;5.50;5.07;;;24.50;50.80;;;;;;20585;6899;121872;-87
2022/07/23 04:02:33;;;;;;;5.73;5.23;;;24.30;50.60;;;;;;20528;6909;118695;-87
2022/07/23 04:05:00;;;;;;;5.47;5.17;;;24.20;51.00;;;;;;20558;6909;118115;-88
2022/07/23 04:07:26;;;;;;;5.80;5.50;;;24.30;52.00;;;;;;20336;6907;310595;-88
2022/07/23 04:09:53;;;;;;;6.10;5.70;;;24.30;52.00;;;;;;20350;6909;312989;-87
2022/07/23 04:12:19;;;;;;;6.23;5.83;;;24.80;51.30;;;;;;20353;6909;281522;-88
2022/07/23 04:14:44;;;;;;;5.77;5.47;;;25.10;50.70;;;;;;20532;6909;145666;-87
2022/07/23 04:17:10;;;;;;;5.87;5.37;;;25.10;50.60;;;;;;20567;6909;118199;-87
2022/07/23 04:19:39;;;;;;;6.20;5.90;;;24.80;50.90;;;;;;20343;6909;282853;-88
2022/07/23 04:22:01;;;;;;;5.97;5.50;;;25.00;51.10;;;;;;20568;6909;117362;-89
2022/07/23 04:24:27;;;;;;;6.20;5.78;;;25.00;51.10;;;;;;20356;6909;281852;-87
2022/07/23 04:26:53;;;;;;;6.10;5.80;;;25.10;50.90;;;;;;20341;6909;468582;-90
2022/07/23 04:29:18;;;;;;;6.68;6.28;;;25.40;50.70;;;;;;20333;6909;312483;-86
2022/07/23 04:31:43;;;;;;;6.20;5.90;;;25.60;50.10;;;;;;20566;6909;117996;-86
2022/07/23 04:34:09;;;;;;;6.57;6.07;;;25.40;50.10;;;;;;20581;6909;118754;-86
2022/07/23 04:36:35;;;;;;;6.37;6.07;;;25.10;50.50;;;;;;20342;6909;312531;-85
2022/07/23 04:39:02;;;;;;;6.27;5.80;;;25.20;50.70;;;;;;20574;6909;118316;-84
2022/07/23 04:41:27;;;;;;;6.57;6.10;;;25.00;50.80;;;;;;20365;6909;283901;-86
2022/07/23 04:43:56;;;;;;;5.32;5.03;;;25.10;50.90;;;;;;20356;6909;309670;-86
2022/07/23 04:46:21;;;;;;;6.10;5.70;;;25.40;51.00;;;;;;20576;6909;119873;-86
2022/07/23 04:48:47;;;;;;;5.93;5.62;;;25.30;50.90;;;;;;20341;6909;310879;-86
2022/07/23 04:51:14;;;;;;;6.60;6.30;;;25.50;50.50;;;;;;20350;6909;311339;-86
2022/07/23 04:53:39;;;;;;;6.40;6.00;;;25.70;49.80;;;;;;20375;6909;308897;-87
2022/07/23 04:56:05;;;;;;;6.80;6.40;;;26.00;49.30;;;;;;20437;6909;279932;-86
2022/07/23 04:58:31;;;;;;;6.60;6.20;;;26.20;49.30;;;;;;20427;6909;279725;-87
2022/07/23 05:00:57;;;;;;;6.33;6.00;;;26.30;49.10;;;;;;20431;6909;342366;-86
2022/07/23 05:03:23;;;;;;;5.97;5.67;;;26.50;48.90;;;;;;20649;6909;89384;-86
2022/07/23 05:05:49;;;;;;;6.70;6.30;;;26.30;49.00;;;;;;20446;6909;304183;-87
2022/07/23 05:08:15;;;;;;;6.27;5.87;;;26.40;49.00;;;;;;20624;6909;116736;-86
2022/07/23 05:10:40;;;;;;;6.27;5.93;;;26.20;49.10;;;;;;20415;6909;280544;-86
2022/07/23 05:13:06;;;;;;;6.40;6.00;;;26.30;50.40;;;;;;20307;6909;340241;-86
2022/07/23 05:15:31;;;;;;;7.00;6.40;;;26.50;49.40;;;;;;20349;6909;340681;-86
2022/07/23 05:17:57;;;;;;;5.97;5.67;;;26.60;49.20;;;;;;20562;6909;121081;-86
2022/07/23 05:20:23;;;;;;;6.20;5.80;;;26.40;49.50;;;;;;20337;6908;279950;-86
2022/07/23 05:22:48;;;;;;;6.90;6.30;;;26.40;49.80;;;;;;20338;6909;309612;-86
2022/07/23 05:25:14;;;;;;;6.20;5.77;;;26.50;49.60;;;;;;20555;6909;117583;-86
2022/07/23 05:27:39;;;;;;;6.13;5.73;;;26.20;49.50;;;;;;20562;6909;120606;-86
2022/07/23 05:30:05;;;;;;;6.37;6.00;;;25.90;50.00;;;;;;20342;6909;311351;-86
2022/07/23 05:32:31;;;;;;;5.90;5.60;;;26.00;49.70;;;;;;20540;6909;120207;-86
2022/07/23 05:34:56;;;;;;;5.77;5.37;;;25.90;49.80;;;;;;20537;6909;119058;-87
2022/07/23 05:37:22;;;;;;;6.50;6.10;;;25.60;50.20;;;;;;20355;6909;281701;-86
2022/07/23 05:39:47;;;;;;;6.03;5.62;;;25.80;50.60;;;;;;20358;6909;340228;-86
2022/07/23 05:42:13;;;;;;;6.00;5.70;;;26.00;50.30;;;;;;20570;6909;117458;-86
2022/07/23 05:44:38;;;;;;;6.70;6.25;;;26.00;50.30;;;;;;20334;6909;340959;-85
2022/07/23 05:47:04;;;;;;;5.57;5.27;;;26.10;49.80;;;;;;20567;6909;118793;-88
2022/07/23 05:49:30;;;;;;;6.70;6.30;;;26.00;49.90;;;;;;20334;6909;310584;-86
2022/07/23 05:51:55;;;;;;;6.77;6.30;;;26.00;50.40;;;;;;20346;6909;281212;-87
2022/07/23 05:54:21;;;;;;;6.60;6.20;;;26.30;50.20;;;;;;20349;6909;294446;-85
2022/07/23 05:56:46;;;;;;;6.73;6.27;;;26.50;49.60;;;;;;20541;6909;118006;-87
2022/07/23 05:59:14;;;;;;;6.15;5.82;;;26.40;49.70;;;;;;20572;6909;119724;-88
2022/07/23 06:01:39;;;;;;;7.20;6.70;;;26.10;50.00;;;;;;20349;6909;310402;-87
2022/07/23 06:04:04;;;;;;;6.57;6.20;;;26.30;49.90;;;;;;20570;6909;118619;-87
2022/07/23 06:06:30;;;;;;;6.33;6.03;;;26.30;49.90;;;;;;20567;6909;118620;-89
2022/07/23 06:08:55;;;;;;;6.87;6.37;;;26.10;50.10;;;;;;20343;6909;283787;-87
2022/07/23 06:11:21;;;;;;;7.40;6.90;;;26.40;49.80;;;;;;20567;6909;117939;-86
2022/07/23 06:13:46;;;;;;;7.37;6.87;;;26.40;49.70;;;;;;20362;6909;282285;-88
2022/07/23 06:16:12;;;;;;;6.83;6.33;;;26.70;49.10;;;;;;20563;6909;117912;-88
2022/07/23 06:18:38;;;;;;;7.57;7.07;;;26.80;49.20;;;;;;20333;6909;310270;-88
2022/07/23 06:21:04;;;;;;;6.72;6.32;;;27.20;48.30;;;;;;20564;6909;118200;-88
2022/07/23 06:23:29;;;;;;;6.73;6.27;;;27.20;48.20;;;;;;20555;6909;120094;-89
2022/07/23 06:25:55;;;;;;;7.10;6.70;;;27.20;48.40;;;;;;20564;6909;117387;-88
2022/07/23 06:28:21;;;;;;;6.22;5.72;;;27.20;48.30;;;;;;20558;6909;117640;-89
2022/07/23 06:30:48;;;;;;;6.43;5.93;;;27.10;48.20;;;;;;20541;6907;117579;-89
2022/07/23 06:33:12;;;;;;;7.20;6.80;;;27.40;48.50;;;;;;20350;6909;309431;-90
2022/07/23 06:35:38;;;;;;;6.80;6.40;;;28.20;47.40;;;;;;20557;6909;118990;-90
2022/07/23 06:38:04;;;;;;;6.53;6.23;;;28.70;46.90;;;;;;20563;6909;118339;-89
2022/07/23 06:40:29;;;;;;;6.40;6.00;;;29.00;46.50;;;;;;20560;6909;117477;-88
2022/07/23 06:42:55;;;;;;;6.90;6.50;;;29.30;46.20;;;;;;20545;6909;119615;-90
2022/07/23 06:45:22;;;;;;;7.57;7.07;;;29.80;44.60;;;;;;20561;6909;117689;-88
2022/07/23 06:47:51;;;;;;;7.20;6.53;;;29.80;44.60;;;;;;20557;6909;119698;-89
2022/07/23 06:50:17;;;;;;;7.00;6.68;;;30.00;44.20;;;;;;20348;6909;296315;-89
2022/07/23 06:52:42;;;;;;;7.22;6.78;;;30.60;42.20;;;;;;20352;6909;310882;-90
2022/07/23 06:55:08;;;;;;;7.32;6.82;;;31.30;41.30;;;;;;20367;6909;281019;-88
2022/07/23 06:57:34;;;;;;;6.93;6.53;;;32.00;40.20;;;;;;20371;6909;285183;-92
2022/07/23 06:59:59;;;;;;;7.12;6.50;;;32.50;39.50;;;;;;20346;6909;309624;-88
2022/07/23 07:02:25;;;;;;;6.78;6.47;;;32.80;38.90;;;;;;20366;6909;339313;-89
2022/07/23 07:04:50;;;;;;;6.62;6.10;;;33.20;38.30;;;;;;20556;6909;119285;-87
2022/07/23 07:07:17;;;;;;;6.95;6.50;;;33.10;38.90;;;;;;20354;6909;311345;-90
2022/07/23 07:09:45;;;;;;;6.33;5.97;;;33.30;38.90;;;;;;20353;6909;314025;-85
2022/07/23 07:12:11;;;;;;;6.07;5.77;;;33.00;39.20;;;;;;20558;6909;117441;-87
2022/07/23 07:14:37;;;;;;;6.93;6.33;;;33.00;39.10;;;;;;20543;6909;117517;-87
2022/07/23 07:17:03;;;;;;;7.10;6.55;;;32.60;39.70;;;;;;20352;6909;311445;-86
2022/07/23 07:19:28;;;;;;;6.57;6.27;;;32.40;39.20;;;;;;20542;6909;117925;-87
2022/07/23 07:21:54;;;;;;;7.00;6.60;;;32.00;39.60;;;;;;20343;6909;283588;-89
2022/07/23 07:24:21;;;;;;;7.40;6.90;;;31.50;39.90;;;;;;20343;6909;280383;-87
2022/07/23 07:26:47;;;;;;;7.40;7.00;;;31.40;40.00;;;;;;20328;6909;341984;-88
2022/07/23 07:29:13;;;;;;;6.73;6.33;;;31.40;40.00;;;;;;20564;6909;117496;-87
2022/07/23 07:31:40;;;;;;;7.13;6.73;;;30.90;40.30;;;;;;20549;6909;117476;-88
2022/07/23 07:34:07;;;;;;;7.03;6.63;;;30.40;41.10;;;;;;20361;6909;280430;-88
2022/07/23 07:36:33;;;;;;;6.93;6.37;;;30.50;41.60;;;;;;20574;6909;117499;-87
2022/07/23 07:38:58;;;;;;;7.13;6.57;;;30.40;41.70;;;;;;20580;6909;117604;-88
2022/07/23 07:41:25;;;;;;;7.40;6.70;;;30.20;42.20;;;;;;20599;6909;67666;-88
2022/07/23 07:43:51;;;;;;;15.52;9.20;;;30.00;42.70;;;;;;20354;6908;292933;-88
2022/07/23 07:46:16;;;;;;;131.33;12.63;;;30.20;42.20;;;;;;20573;6909;117864;-89
2022/07/23 07:48:42;;;;;;;16.45;7.80;;;30.10;42.10;;;;;;20340;6909;309877;-86
2022/07/23 07:51:07;;;;;;;8.63;6.70;;;30.20;41.80;;;;;;20358;6909;310995;-86
2022/07/23 07:53:33;;;;;;;221.57;26.13;;;30.40;41.30;;;;;;20562;6909;119292;-88
2022/07/23 07:55:59;;;;;;;7.23;6.77;;;29.80;41.80;;;;;;20546;6909;118275;-87
2022/07/23 07:58:26;;;;;;;666.87;64.83;;;29.80;41.80;;;;;;20561;6909;117919;-90
2022/07/23 08:00:52;;;;;;;7.30;6.70;;;29.50;42.50;;;;;;20543;6909;118123;-87
2022/07/23 08:03:17;;;;;;;44.15;10.90;;;29.40;42.80;;;;;;20351;6909;310523;-87
2022/07/23 08:05:43;;;;;;;7.20;6.72;;;29.70;42.70;;;;;;20355;6909;312779;-89
2022/07/23 08:08:14;;;;;;;6.97;6.57;;;30.20;42.70;;;;;;20341;6909;310922;-89
2022/07/23 08:10:36;;;;;;;7.03;6.63;;;30.70;41.20;;;;;;20572;6909;120427;-86
2022/07/23 08:13:01;;;;;;;17.87;8.18;;;30.80;40.90;;;;;;20610;6909;118173;-86
2022/07/23 08:15:27;;;;;;;6.70;6.20;;;30.70;41.40;;;;;;20547;6909;117939;-84
2022/07/23 08:17:52;;;;;;;15.63;7.25;;;30.60;41.40;;;;;;20360;6909;283476;-86
2022/07/23 08:20:18;;;;;;;16.10;6.80;;;30.90;40.30;;;;;;20563;6909;119664;-87
2022/07/23 08:22:58;;;;;;;50.73;11.17;;;31.00;40.40;;;;;;20536;6909;118489;-88
2022/07/23 08:25:36;;;;;;;7.50;7.00;;;31.00;40.40;;;;;;20347;6909;300403;-89
2022/07/23 08:28:02;;;;;;;26.73;7.93;;;31.40;39.40;;;;;;20340;6909;340211;-89
2022/07/23 08:30:27;;;;;;;15.63;7.23;;;31.80;38.90;;;;;;20348;6909;311419;-91
2022/07/23 08:32:56;;;;;;;86.00;10.50;;;32.30;38.40;;;;;;20332;6909;310146;-89
2022/07/23 08:35:29;;;;;;;215.43;17.40;;;32.80;37.40;;;;;;20536;6909;120001;-88
2022/07/23 08:37:54;;;;;;;7.90;7.20;;;32.70;37.30;;;;;;20354;6909;310296;-88
2022/07/23 08:40:21;;;;;;;7.43;6.90;;;32.90;36.90;;;;;;20346;6909;299268;-88
2022/07/23 08:42:47;;;;;;;10.43;7.77;;;33.10;35.20;;;;;;20544;6909;118164;-87
2022/07/23 08:45:14;;;;;;;7.13;6.73;;;32.90;36.10;;;;;;20540;6909;115287;-90
2022/07/23 08:47:39;;;;;;;7.17;6.67;;;32.70;36.50;;;;;;20352;6909;280405;-86
2022/07/23 08:50:06;;;;;;;301.60;21.02;;;32.80;36.00;;;;;;20350;6909;310580;-86
2022/07/23 08:52:32;;;;;;;122.63;14.40;;;32.80;35.90;;;;;;20552;6909;118078;-87
2022/07/23 08:54:58;;;;;;;7.40;6.67;;;32.60;36.40;;;;;;20337;6907;311398;-87
2022/07/23 08:57:24;;;;;;;293.63;21.13;;;32.50;36.40;;;;;;20349;6909;308408;-87
2022/07/23 08:59:49;;;;;;;388.02;26.52;;;32.70;36.60;;;;;;20353;6909;313210;-88
2022/07/23 09:02:15;;;;;;;88.63;10.30;;;32.80;37.40;;;;;;20564;6909;118017;-87
2022/07/23 09:04:41;;;;;;;7.10;6.50;;;32.50;37.60;;;;;;20524;6909;147022;-88
2022/07/23 09:07:07;;;;;;;16.03;7.60;;;32.50;37.60;;;;;;20354;6909;308974;-91
2022/07/23 09:09:33;;;;;;;6.90;6.47;;;32.60;36.40;;;;;;20541;6909;118836;-92
2022/07/23 09:12:01;;;;;;;7.20;6.80;;;32.50;36.40;;;;;;20555;6909;117503;-90
2022/07/23 09:14:40;;;;;;;7.37;6.57;;;32.20;36.40;;;;;;20289;6909;342526;-89
2022/07/23 09:17:10;;;;;;;7.50;6.90;;;32.20;35.90;;;;;;20553;6909;117515;-87
2022/07/23 09:19:35;;;;;;;6.87;6.47;;;32.20;36.20;;;;;;20537;6909;117392;-88
2022/07/23 09:22:21;;;;;;;7.37;6.78;;;32.00;36.60;;;;;;20360;6909;342463;-89
2022/07/23 09:25:13;;;;;;;10.67;7.17;;;32.00;36.70;;;;;;20547;6909;121435;-88
2022/07/23 09:27:54;;;;;;;6.90;6.30;;;32.00;37.10;;;;;;20338;6909;310472;-91
2022/07/23 09:30:30;;;;;;;7.23;6.53;;;32.10;36.60;;;;;;20354;6909;279927;-89
2022/07/23 09:33:09;;;;;;;7.45;6.90;;;32.30;37.50;;;;;;20326;6909;310059;-85
2022/07/23 09:35:54;;;;;;;7.40;6.70;;;32.40;36.60;;;;;;20363;6909;279826;-86
2022/07/23 09:38:20;;;;;;;7.17;6.77;;;32.60;36.20;;;;;;20451;6909;310459;-85
2022/07/23 09:40:45;;;;;;;7.07;6.50;;;32.80;36.00;;;;;;20589;6909;117074;-86
2022/07/23 09:43:11;;;;;;;7.00;6.57;;;32.60;36.10;;;;;;20635;6909;67622;-86
2022/07/23 09:45:39;;;;;;;7.10;6.55;;;32.30;36.20;;;;;;20429;6909;340200;-85
2022/07/23 09:48:15;;;;;;;7.00;6.68;;;32.40;36.20;;;;;;20641;6909;117276;-85
2022/07/23 09:50:41;;;;;;;7.00;6.60;;;32.30;36.00;;;;;;20620;6909;116845;-86
2022/07/23 09:53:06;;;;;;;7.87;7.47;;;32.10;36.40;;;;;;20650;6676;116815;-86
2022/07/23 09:55:45;;;;;;;7.50;7.00;;;31.90;36.40;;;;;;20889;6774;118466;-87
2022/07/23 09:58:17;;;;;;;7.40;6.70;;;31.80;36.60;;;;;;20838;6789;118868;-85
2022/07/23 10:00:53;;;;;;;7.10;6.50;;;31.90;36.80;;;;;;20777;6806;118274;-85
2022/07/23 10:03:28;;;;;;;6.97;6.57;;;31.90;36.80;;;;;;20596;6791;279115;-84
2022/07/23 10:06:04;;;;;;;7.63;7.23;;;32.30;36.40;;;;;;20861;6781;116302;-85
2022/07/23 10:08:42;;;;;;;6.80;6.30;;;32.50;36.20;;;;;;20827;6780;117542;-86
2022/07/23 10:11:17;;;;;;;6.50;6.17;;;32.40;36.30;;;;;;20767;6795;116625;-85
2022/07/23 10:13:58;;;;;;;6.63;6.23;;;32.40;36.40;;;;;;20690;6814;116423;-85
2022/07/23 10:16:31;;;;;;;7.47;7.07;;;32.40;36.40;;;;;;20841;6785;116253;-85
2022/07/23 10:19:07;;;;;;;6.83;6.43;;;32.50;36.50;;;;;;20726;6808;118833;-86
2022/07/23 10:21:48;;;;;;;7.13;6.73;;;32.50;36.70;;;;;;20732;6801;117079;-85
2022/07/23 10:24:47;;;;;;;7.50;6.90;;;32.60;36.20;;;;;;20659;6792;117232;-86
2022/07/23 10:27:43;;;;;;;7.00;6.50;;;32.70;36.30;;;;;;20805;6777;119360;-86
2022/07/23 10:30:23;;;;;;;7.23;6.53;;;32.60;35.80;;;;;;20806;6774;116998;-86
2022/07/23 10:33:32;;;;;;;7.20;6.80;;;32.40;36.10;;;;;;20066;6846;120589;-86
2022/07/23 10:36:31;;;;;;;7.43;7.03;;;32.30;36.70;;;;;;19759;7127;120059;-86
2022/07/23 10:39:12;;;;;;;7.87;7.27;;;32.30;36.70;;;;;;20512;6832;302480;-86
2022/07/23 10:41:46;;;;;;;7.13;6.47;;;32.80;36.30;;;;;;20791;6775;117757;-86
2022/07/23 10:44:23;;;;;;;7.23;6.73;;;32.80;36.20;;;;;;20436;6794;300788;-89
2022/07/23 10:49:46;;;;;;;7.18;6.65;;;33.00;36.00;;;;;;19441;7151;322972;-87
2022/07/23 10:52:26;;;;;;;7.20;6.77;;;33.40;35.40;;;;;;20800;6778;118328;-88
2022/07/23 10:55:02;;;;;;;7.00;6.60;;;33.70;35.30;;;;;;20623;6779;119136;-88
2022/07/23 10:57:50;;;;;;;6.83;6.43;;;33.70;35.20;;;;;;20538;6775;310554;-88
2022/07/23 11:00:26;;;;;;;7.00;6.60;;;34.00;34.90;;;;;;20756;6790;117313;-89
2022/07/23 11:03:02;;;;;;;7.37;6.70;;;33.80;34.80;;;;;;20770;6779;117025;-89
2022/07/23 11:05:42;;;;;;;7.68;7.10;;;33.80;34.80;;;;;;20595;6775;336638;-90
2022/07/23 11:08:20;;;;;;;7.53;7.13;;;34.00;34.30;;;;;;20841;6775;120247;-94
2022/07/23 11:10:56;;;;;;;7.30;6.90;;;33.80;34.30;;;;;;20709;6789;117274;-88
2022/07/23 11:13:31;;;;;;;6.90;6.60;;;33.40;34.60;;;;;;20474;6788;283155;-89
2022/07/23 11:16:14;;;;;;;7.25;6.85;;;33.60;35.10;;;;;;20564;6773;309675;-89
2022/07/23 11:18:52;;;;;;;7.33;6.87;;;33.90;34.00;;;;;;20599;6753;279036;-88
2022/07/23 11:21:38;;;;;;;6.80;6.40;;;34.20;33.80;;;;;;20532;6793;308775;-91
2022/07/23 11:24:13;;;;;;;7.33;6.93;;;34.40;33.60;;;;;;20651;6795;117651;-88
2022/07/23 11:26:49;;;;;;;6.47;6.07;;;34.10;33.90;;;;;;20810;6764;127532;-90
2022/07/23 11:29:31;;;;;;;7.23;6.83;;;33.80;34.40;;;;;;20725;6796;282451;-88
2022/07/23 11:32:21;;;;;;;6.87;6.57;;;33.50;34.70;;;;;;20831;6766;117189;-87
2022/07/23 11:34:57;;;;;;;7.77;7.33;;;33.40;35.10;;;;;;20395;6781;394115;-86
2022/07/23 11:37:37;;;;;;;7.30;6.80;;;33.50;34.50;;;;;;20623;6764;297311;-89
2022/07/23 11:40:13;;;;;;;7.17;6.77;;;33.70;33.90;;;;;;20816;6769;119489;-89
2022/07/23 11:42:49;;;;;;;6.80;6.40;;;33.70;33.90;;;;;;20805;6769;118243;-89
2022/07/23 11:45:25;;;;;;;7.20;6.80;;;33.60;34.80;;;;;;20638;6830;117416;-88
2022/07/23 11:48:00;;;;;;;6.87;6.47;;;33.40;34.30;;;;;;20547;6796;311075;-90
2022/07/23 11:50:36;;;;;;;6.83;6.50;;;33.60;34.30;;;;;;20559;6779;277895;-88
2022/07/23 11:53:12;;;;;;;6.77;6.30;;;34.50;33.10;;;;;;20599;6769;277773;-87
2022/07/23 11:55:47;;;;;;;29.50;7.20;;;34.40;33.00;;;;;;20800;6781;117375;-86
2022/07/23 11:58:23;;;;;;;6.60;6.20;;;34.60;33.00;;;;;;20622;6769;276843;-87
2022/07/23 12:00:59;;;;;;;6.60;6.20;;;34.90;30.70;;;;;;20607;6764;279970;-87
2022/07/23 12:03:37;;;;;;;6.57;6.25;;;34.80;30.60;;;;;;20574;6764;343337;-89
2022/07/23 12:06:13;;;;;;;6.47;6.17;;;34.90;30.70;;;;;;20826;6768;118364;-87
2022/07/23 12:08:48;;;;;;;6.90;6.40;;;34.80;30.60;;;;;;20626;6768;335416;-87
2022/07/23 12:11:24;;;;;;;6.43;6.10;;;34.80;29.90;;;;;;20841;6764;118325;-87
2022/07/23 12:14:01;;;;;;;6.43;6.13;;;34.60;30.20;;;;;;20481;6781;281044;-87
2022/07/23 12:16:36;;;;;;;6.47;6.10;;;34.60;30.10;;;;;;20573;6769;337675;-87
2022/07/23 12:19:13;;;;;;;6.20;5.82;;;34.70;30.40;;;;;;20602;6769;338890;-89
2022/07/23 12:21:47;;;;;;;6.27;5.97;;;34.70;30.00;;;;;;20610;6769;291591;-87
2022/07/23 12:24:23;;;;;;;6.67;6.27;;;34.60;29.70;;;;;;20717;6769;117093;-87
2022/07/23 12:27:12;;;;;;;6.03;5.80;;;34.10;30.20;;;;;;20501;6784;321749;-87
2022/07/23 12:29:47;;;;;;;6.70;6.23;;;33.90;31.50;;;;;;20621;6759;308107;-84
2022/07/23 12:32:23;;;;;;;6.57;6.13;;;33.90;31.40;;;;;;20859;6759;117015;-85
2022/07/23 12:35:05;;;;;;;6.30;5.87;;;33.70;31.20;;;;;;20640;6778;118508;-85
2022/07/23 12:37:40;;;;;;;6.07;5.77;;;33.30;31.80;;;;;;20825;6768;117026;-86
2022/07/23 12:40:36;;;;;;;6.30;6.00;;;33.10;32.60;;;;;;20750;6799;117108;-87
2022/07/23 12:43:12;;;;;;;7.10;6.70;;;32.80;33.40;;;;;;20709;6797;117827;-86
2022/07/23 12:45:47;;;;;;;6.97;6.57;;;32.70;33.60;;;;;;20279;6826;305840;-85
2022/07/23 12:48:34;;;;;;;6.80;6.50;;;33.00;34.20;;;;;;20808;6774;122418;-86